sensor_id;sensor_type;location;lat;lon;timestamp;pressure;altitude;pressure_sealevel;temperature;humidity
61900;BME280;47853;55.890;37.664;2023-12-29T00:01:09;98474.94;;;-0.88;100.00
61900;BME280;47853;55.890;37.664;2023-12-29T00:03:35;98457.13;;;-0.26;100.00
61900;BME280;47853;55.890;37.664;2023-12-29T00:06:02;98472.59;;;-0.02;95.71
61900;BME280;47853;55.890;37.664;2023-12-29T00:08:28;98461.38;;;0.19;89.93
61900;BME280;47853;55.890;37.664;2023-12-29T00:10:53;98460.78;;;1.12;86.23
61900;BME280;47853;55.890;37.664;2023-12-29T00:13:19;98465.97;;;0.60;87.24
61900;BME280;47853;55.890;37.664;2023-12-29T00:15:44;98451.16;;;0.27;90.63
61900;BME280;47853;55.890;37.664;2023-12-29T00:18:10;98440.91;;;-0.52;97.23
61900;BME280;47853;55.890;37.664;2023-12-29T00:20:35;98436.28;;;-0.94;100.00
61900;BME280;47853;55.890;37.664;2023-12-29T00:23:01;98440.44;;;-0.46;99.37
61900;BME280;47853;55.890;37.664;2023-12-29T00:25:26;98432.94;;;-0.39;96.70
61900;BME280;47853;55.890;37.664;2023-12-29T00:27:52;98420.94;;;-0.19;93.76
61900;BME280;47853;55.890;37.664;2023-12-29T00:30:17;98418.28;;;0.25;92.54
61900;BME280;47853;55.890;37.664;2023-12-29T00:32:43;98411.59;;;0.75;89.12
61900;BME280;47853;55.890;37.664;2023-12-29T00:35:08;98402.84;;;0.85;86.00
61900;BME280;47853;55.890;37.664;2023-12-29T00:37:34;98407.97;;;0.45;87.77
61900;BME280;47853;55.890;37.664;2023-12-29T00:39:59;98401.78;;;0.24;90.10
61900;BME280;47853;55.890;37.664;2023-12-29T00:42:25;98395.34;;;0.07;90.56
61900;BME280;47853;55.890;37.664;2023-12-29T00:44:50;98407.28;;;0.10;93.15
61900;BME280;47853;55.890;37.664;2023-12-29T00:47:15;98390.97;;;-0.04;91.08
61900;BME280;47853;55.890;37.664;2023-12-29T00:49:44;98389.28;;;-0.26;95.82
61900;BME280;47853;55.890;37.664;2023-12-29T00:52:09;98391.13;;;-0.17;92.18
61900;BME280;47853;55.890;37.664;2023-12-29T00:54:35;98387.69;;;0.16;91.76
61900;BME280;47853;55.890;37.664;2023-12-29T00:57:00;98377.34;;;0.47;88.22
61900;BME280;47853;55.890;37.664;2023-12-29T00:59:26;98371.44;;;0.12;89.13
61900;BME280;47853;55.890;37.664;2023-12-29T01:01:51;98363.50;;;0.13;90.38
61900;BME280;47853;55.890;37.664;2023-12-29T01:04:17;98372.75;;;0.39;88.72
61900;BME280;47853;55.890;37.664;2023-12-29T01:06:42;98362.78;;;-0.10;93.73
61900;BME280;47853;55.890;37.664;2023-12-29T01:09:07;98369.44;;;-0.61;96.01
61900;BME280;47853;55.890;37.664;2023-12-29T01:11:33;98349.47;;;-0.51;96.09
61900;BME280;47853;55.890;37.664;2023-12-29T01:13:58;98343.41;;;0.56;93.20
61900;BME280;47853;55.890;37.664;2023-12-29T01:16:24;98340.69;;;0.16;91.22
61900;BME280;47853;55.890;37.664;2023-12-29T01:18:49;98335.56;;;0.56;90.30
61900;BME280;47853;55.890;37.664;2023-12-29T01:21:14;98337.81;;;0.40;85.86
61900;BME280;47853;55.890;37.664;2023-12-29T01:23:40;98340.91;;;0.76;88.38
61900;BME280;47853;55.890;37.664;2023-12-29T01:26:05;98342.56;;;-0.29;91.59
61900;BME280;47853;55.890;37.664;2023-12-29T01:28:31;98334.28;;;-0.90;100.00
61900;BME280;47853;55.890;37.664;2023-12-29T01:30:56;98335.84;;;0.11;96.32
61900;BME280;47853;55.890;37.664;2023-12-29T01:33:21;98324.78;;;-0.91;98.03
61900;BME280;47853;55.890;37.664;2023-12-29T01:35:47;98334.22;;;-0.67;100.00
61900;BME280;47853;55.890;37.664;2023-12-29T01:38:12;98313.19;;;-0.10;94.84
61900;BME280;47853;55.890;37.664;2023-12-29T01:40:45;98307.09;;;0.22;92.66
61900;BME280;47853;55.890;37.664;2023-12-29T01:43:10;98281.59;;;0.67;89.28
61900;BME280;47853;55.890;37.664;2023-12-29T01:45:36;98279.22;;;0.33;90.88
61900;BME280;47853;55.890;37.664;2023-12-29T01:48:02;98277.72;;;0.09;92.50
61900;BME280;47853;55.890;37.664;2023-12-29T01:50:29;98273.22;;;0.83;91.23
61900;BME280;47853;55.890;37.664;2023-12-29T01:52:55;98273.91;;;0.75;90.74
61900;BME280;47853;55.890;37.664;2023-12-29T01:55:21;98282.66;;;0.95;88.91
61900;BME280;47853;55.890;37.664;2023-12-29T01:57:47;98269.66;;;0.74;88.40
61900;BME280;47853;55.890;37.664;2023-12-29T02:00:15;98259.09;;;0.85;90.56
61900;BME280;47853;55.890;37.664;2023-12-29T02:02:41;98258.56;;;1.01;88.20
61900;BME280;47853;55.890;37.664;2023-12-29T02:05:06;98254.06;;;1.63;83.52
61900;BME280;47853;55.890;37.664;2023-12-29T02:07:32;98248.84;;;1.53;81.12
61900;BME280;47853;55.890;37.664;2023-12-29T02:09:58;98248.28;;;0.07;92.65
61900;BME280;47853;55.890;37.664;2023-12-29T02:12:23;98238.44;;;0.82;89.84
61900;BME280;47853;55.890;37.664;2023-12-29T02:14:49;98238.56;;;-0.12;89.20
61900;BME280;47853;55.890;37.664;2023-12-29T02:19:44;98246.47;;;-0.03;97.12
61900;BME280;47853;55.890;37.664;2023-12-29T02:22:12;98222.13;;;-0.24;94.23
61900;BME280;47853;55.890;37.664;2023-12-29T02:24:38;98239.69;;;0.47;92.62
61900;BME280;47853;55.890;37.664;2023-12-29T02:29:38;98219.50;;;1.10;83.15
61900;BME280;47853;55.890;37.664;2023-12-29T02:32:06;98227.75;;;0.54;85.57
61900;BME280;47853;55.890;37.664;2023-12-29T02:34:36;98217.38;;;0.84;89.52
61900;BME280;47853;55.890;37.664;2023-12-29T02:37:04;98226.72;;;0.67;87.81
61900;BME280;47853;55.890;37.664;2023-12-29T02:39:30;98212.22;;;0.53;89.32
61900;BME280;47853;55.890;37.664;2023-12-29T02:41:55;98205.44;;;1.01;86.35
61900;BME280;47853;55.890;37.664;2023-12-29T02:44:21;98203.53;;;1.13;86.34
61900;BME280;47853;55.890;37.664;2023-12-29T02:46:46;98194.06;;;-0.11;93.94
61900;BME280;47853;55.890;37.664;2023-12-29T02:49:12;98193.06;;;0.42;99.85
61900;BME280;47853;55.890;37.664;2023-12-29T02:51:37;98183.81;;;-0.03;96.86
61900;BME280;47853;55.890;37.664;2023-12-29T02:54:03;98182.59;;;-0.83;100.00
61900;BME280;47853;55.890;37.664;2023-12-29T02:56:28;98175.84;;;0.71;98.05
61900;BME280;47853;55.890;37.664;2023-12-29T02:58:53;98171.88;;;1.45;91.32
61900;BME280;47853;55.890;37.664;2023-12-29T03:01:19;98170.53;;;0.51;89.82
61900;BME280;47853;55.890;37.664;2023-12-29T03:03:44;98177.94;;;1.17;89.04
61900;BME280;47853;55.890;37.664;2023-12-29T03:06:10;98165.34;;;0.10;98.91
61900;BME280;47853;55.890;37.664;2023-12-29T03:08:35;98171.91;;;-0.80;100.00
61900;BME280;47853;55.890;37.664;2023-12-29T03:11:01;98162.59;;;-0.62;100.00
61900;BME280;47853;55.890;37.664;2023-12-29T03:13:26;98160.31;;;-0.03;100.00
61900;BME280;47853;55.890;37.664;2023-12-29T03:15:52;98157.81;;;-0.14;100.00
61900;BME280;47853;55.890;37.664;2023-12-29T03:18:17;98146.81;;;0.84;98.18
61900;BME280;47853;55.890;37.664;2023-12-29T03:20:42;98159.34;;;0.80;94.01
61900;BME280;47853;55.890;37.664;2023-12-29T03:23:08;98154.66;;;0.74;93.58
61900;BME280;47853;55.890;37.664;2023-12-29T03:25:33;98147.59;;;0.55;94.69
61900;BME280;47853;55.890;37.664;2023-12-29T03:27:59;98127.84;;;0.72;91.25
61900;BME280;47853;55.890;37.664;2023-12-29T03:30:24;98138.75;;;0.36;94.31
61900;BME280;47853;55.890;37.664;2023-12-29T03:32:49;98145.19;;;0.22;93.41
61900;BME280;47853;55.890;37.664;2023-12-29T03:35:15;98148.16;;;0.58;93.47
61900;BME280;47853;55.890;37.664;2023-12-29T03:37:40;98142.66;;;0.71;90.61
61900;BME280;47853;55.890;37.664;2023-12-29T03:40:08;98138.63;;;-0.24;93.67
61900;BME280;47853;55.890;37.664;2023-12-29T03:42:33;98128.72;;;0.32;96.79
61900;BME280;47853;55.890;37.664;2023-12-29T03:44:59;98117.09;;;0.75;94.48
61900;BME280;47853;55.890;37.664;2023-12-29T03:47:24;98109.81;;;1.18;89.66
61900;BME280;47853;55.890;37.664;2023-12-29T03:49:50;98108.84;;;0.60;95.52
61900;BME280;47853;55.890;37.664;2023-12-29T03:52:15;98103.94;;;0.26;96.37
61900;BME280;47853;55.890;37.664;2023-12-29T03:54:40;98104.97;;;0.64;92.50
61900;BME280;47853;55.890;37.664;2023-12-29T03:57:06;98086.78;;;1.41;90.72
61900;BME280;47853;55.890;37.664;2023-12-29T03:59:31;98086.69;;;0.94;90.15
61900;BME280;47853;55.890;37.664;2023-12-29T04:01:57;98078.81;;;1.33;91.30
61900;BME280;47853;55.890;37.664;2023-12-29T04:04:22;98091.13;;;1.61;85.10
61900;BME280;47853;55.890;37.664;2023-12-29T04:06:47;98086.06;;;1.97;82.41
61900;BME280;47853;55.890;37.664;2023-12-29T04:09:13;98074.63;;;2.26;82.55
61900;BME280;47853;55.890;37.664;2023-12-29T04:11:38;98071.75;;;2.19;78.87
61900;BME280;47853;55.890;37.664;2023-12-29T04:14:04;98079.88;;;1.88;84.33
61900;BME280;47853;55.890;37.664;2023-12-29T04:16:29;98080.63;;;2.36;79.01
61900;BME280;47853;55.890;37.664;2023-12-29T04:18:54;98066.97;;;1.39;85.48
61900;BME280;47853;55.890;37.664;2023-12-29T04:21:20;98067.09;;;1.85;85.33
61900;BME280;47853;55.890;37.664;2023-12-29T04:23:45;98054.50;;;1.61;88.94
61900;BME280;47853;55.890;37.664;2023-12-29T04:26:11;98053.69;;;0.93;94.83
61900;BME280;47853;55.890;37.664;2023-12-29T04:28:36;98043.91;;;0.36;100.00
61900;BME280;47853;55.890;37.664;2023-12-29T04:31:02;98050.81;;;0.76;100.00
61900;BME280;47853;55.890;37.664;2023-12-29T04:33:27;98040.19;;;0.88;100.00
61900;BME280;47853;55.890;37.664;2023-12-29T04:35:53;98042.50;;;1.20;100.00
61900;BME280;47853;55.890;37.664;2023-12-29T04:38:18;98025.06;;;0.71;100.00
61900;BME280;47853;55.890;37.664;2023-12-29T04:40:44;98033.06;;;0.60;100.00
61900;BME280;47853;55.890;37.664;2023-12-29T04:43:09;98014.44;;;1.60;100.00
61900;BME280;47853;55.890;37.664;2023-12-29T04:45:35;98019.19;;;1.37;100.00
61900;BME280;47853;55.890;37.664;2023-12-29T04:48:00;98019.28;;;0.78;100.00
61900;BME280;47853;55.890;37.664;2023-12-29T04:50:26;98004.72;;;1.42;100.00
61900;BME280;47853;55.890;37.664;2023-12-29T04:52:51;97994.69;;;0.41;100.00
61900;BME280;47853;55.890;37.664;2023-12-29T04:55:16;98004.94;;;1.11;100.00
61900;BME280;47853;55.890;37.664;2023-12-29T04:57:42;98002.44;;;1.20;100.00
61900;BME280;47853;55.890;37.664;2023-12-29T05:00:07;97989.59;;;0.30;100.00
61900;BME280;47853;55.890;37.664;2023-12-29T05:02:33;98009.41;;;0.42;100.00
61900;BME280;47853;55.890;37.664;2023-12-29T05:04:59;97993.38;;;1.14;100.00
61900;BME280;47853;55.890;37.664;2023-12-29T05:07:24;97994.44;;;1.21;100.00
61900;BME280;47853;55.890;37.664;2023-12-29T05:09:50;97987.44;;;1.22;100.00
61900;BME280;47853;55.890;37.664;2023-12-29T05:12:15;97994.31;;;1.23;100.00
61900;BME280;47853;55.890;37.664;2023-12-29T05:14:41;97991.59;;;1.14;100.00
61900;BME280;47853;55.890;37.664;2023-12-29T05:17:06;97979.06;;;1.56;100.00
61900;BME280;47853;55.890;37.664;2023-12-29T05:19:31;97983.59;;;1.16;100.00
61900;BME280;47853;55.890;37.664;2023-12-29T05:21:57;97978.19;;;1.65;100.00
61900;BME280;47853;55.890;37.664;2023-12-29T05:24:22;97984.66;;;1.23;100.00
61900;BME280;47853;55.890;37.664;2023-12-29T05:26:48;97974.25;;;1.79;100.00
61900;BME280;47853;55.890;37.664;2023-12-29T05:29:13;97970.50;;;2.28;100.00
61900;BME280;47853;55.890;37.664;2023-12-29T05:31:39;97968.00;;;2.26;99.18
61900;BME280;47853;55.890;37.664;2023-12-29T05:34:04;97958.63;;;1.59;100.00
61900;BME280;47853;55.890;37.664;2023-12-29T05:36:30;97950.94;;;1.58;100.00
61900;BME280;47853;55.890;37.664;2023-12-29T05:38:55;97955.75;;;2.45;98.55
61900;BME280;47853;55.890;37.664;2023-12-29T05:41:21;97954.75;;;1.92;100.00
61900;BME280;47853;55.890;37.664;2023-12-29T05:43:46;97958.44;;;1.99;100.00
61900;BME280;47853;55.890;37.664;2023-12-29T05:46:12;97963.34;;;1.18;100.00
61900;BME280;47853;55.890;37.664;2023-12-29T05:48:38;97955.75;;;0.67;100.00
61900;BME280;47853;55.890;37.664;2023-12-29T05:51:12;97954.34;;;0.83;100.00
61900;BME280;47853;55.890;37.664;2023-12-29T05:53:39;97949.22;;;1.01;100.00
61900;BME280;47853;55.890;37.664;2023-12-29T05:56:05;97945.00;;;1.28;100.00
61900;BME280;47853;55.890;37.664;2023-12-29T05:58:30;97950.66;;;0.76;100.00
61900;BME280;47853;55.890;37.664;2023-12-29T06:00:56;97953.66;;;1.38;100.00
61900;BME280;47853;55.890;37.664;2023-12-29T06:03:21;97939.28;;;0.57;100.00
61900;BME280;47853;55.890;37.664;2023-12-29T06:05:50;97932.22;;;1.25;100.00
61900;BME280;47853;55.890;37.664;2023-12-29T06:08:15;97943.38;;;0.79;100.00
61900;BME280;47853;55.890;37.664;2023-12-29T06:10:41;97932.25;;;0.57;100.00
61900;BME280;47853;55.890;37.664;2023-12-29T06:13:06;97937.00;;;1.01;100.00
61900;BME280;47853;55.890;37.664;2023-12-29T06:15:32;97937.34;;;0.59;100.00
61900;BME280;47853;55.890;37.664;2023-12-29T06:17:57;97939.28;;;0.57;100.00
61900;BME280;47853;55.890;37.664;2023-12-29T06:20:23;97942.31;;;0.23;100.00
61900;BME280;47853;55.890;37.664;2023-12-29T06:22:48;97924.59;;;0.26;100.00
61900;BME280;47853;55.890;37.664;2023-12-29T06:25:14;97943.28;;;0.22;100.00
61900;BME280;47853;55.890;37.664;2023-12-29T06:27:40;97926.50;;;0.44;100.00
61900;BME280;47853;55.890;37.664;2023-12-29T06:30:07;97935.19;;;-0.46;100.00
61900;BME280;47853;55.890;37.664;2023-12-29T06:32:32;97932.81;;;0.41;100.00
61900;BME280;47853;55.890;37.664;2023-12-29T06:34:58;97934.13;;;0.85;100.00
61900;BME280;47853;55.890;37.664;2023-12-29T06:37:23;97918.91;;;1.08;100.00
61900;BME280;47853;55.890;37.664;2023-12-29T06:39:49;97912.81;;;0.90;100.00
61900;BME280;47853;55.890;37.664;2023-12-29T06:42:14;97923.56;;;1.80;100.00
61900;BME280;47853;55.890;37.664;2023-12-29T06:44:40;97917.41;;;1.71;100.00
61900;BME280;47853;55.890;37.664;2023-12-29T06:47:05;97911.03;;;1.56;100.00
61900;BME280;47853;55.890;37.664;2023-12-29T06:49:31;97915.44;;;0.80;100.00
61900;BME280;47853;55.890;37.664;2023-12-29T06:51:56;97921.44;;;1.00;100.00
61900;BME280;47853;55.890;37.664;2023-12-29T06:54:21;97927.69;;;0.89;100.00
61900;BME280;47853;55.890;37.664;2023-12-29T06:56:47;97914.03;;;1.61;100.00
61900;BME280;47853;55.890;37.664;2023-12-29T06:59:12;97916.72;;;0.56;100.00
61900;BME280;47853;55.890;37.664;2023-12-29T07:01:43;97918.47;;;1.23;100.00
61900;BME280;47853;55.890;37.664;2023-12-29T07:04:09;97921.97;;;1.04;100.00
61900;BME280;47853;55.890;37.664;2023-12-29T07:06:34;97916.09;;;1.57;100.00
61900;BME280;47853;55.890;37.664;2023-12-29T07:09:00;97910.94;;;0.72;100.00
61900;BME280;47853;55.890;37.664;2023-12-29T07:11:25;97908.19;;;1.11;100.00
61900;BME280;47853;55.890;37.664;2023-12-29T07:13:51;97895.44;;;0.41;100.00
61900;BME280;47853;55.890;37.664;2023-12-29T07:16:16;97899.41;;;1.12;100.00
61900;BME280;47853;55.890;37.664;2023-12-29T07:18:41;97886.75;;;0.60;100.00
61900;BME280;47853;55.890;37.664;2023-12-29T07:21:07;97903.13;;;0.52;100.00
61900;BME280;47853;55.890;37.664;2023-12-29T07:23:32;97890.50;;;1.23;100.00
61900;BME280;47853;55.890;37.664;2023-12-29T07:25:58;97904.28;;;1.25;100.00
61900;BME280;47853;55.890;37.664;2023-12-29T07:28:23;97901.34;;;1.28;100.00
61900;BME280;47853;55.890;37.664;2023-12-29T07:30:48;97910.44;;;0.96;100.00
61900;BME280;47853;55.890;37.664;2023-12-29T07:33:14;97879.28;;;1.13;100.00
61900;BME280;47853;55.890;37.664;2023-12-29T07:35:39;97899.41;;;1.03;100.00
61900;BME280;47853;55.890;37.664;2023-12-29T07:38:05;97894.72;;;0.58;100.00
61900;BME280;47853;55.890;37.664;2023-12-29T07:40:30;97906.00;;;1.63;100.00
61900;BME280;47853;55.890;37.664;2023-12-29T07:42:56;97897.97;;;1.18;100.00
61900;BME280;47853;55.890;37.664;2023-12-29T07:45:21;97897.75;;;2.03;100.00
61900;BME280;47853;55.890;37.664;2023-12-29T07:47:46;97890.00;;;2.56;97.50
61900;BME280;47853;55.890;37.664;2023-12-29T07:50:12;97881.06;;;0.75;100.00
61900;BME280;47853;55.890;37.664;2023-12-29T07:52:37;97896.28;;;-0.08;100.00
61900;BME280;47853;55.890;37.664;2023-12-29T07:55:03;97896.28;;;0.12;100.00
61900;BME280;47853;55.890;37.664;2023-12-29T07:57:29;97887.34;;;0.05;100.00
61900;BME280;47853;55.890;37.664;2023-12-29T07:59:54;97861.75;;;0.95;100.00
61900;BME280;47853;55.890;37.664;2023-12-29T08:02:19;97874.41;;;1.56;100.00
61900;BME280;47853;55.890;37.664;2023-12-29T08:04:45;97879.38;;;1.49;100.00
61900;BME280;47853;55.890;37.664;2023-12-29T08:07:10;97880.22;;;1.22;100.00
61900;BME280;47853;55.890;37.664;2023-12-29T08:09:36;97878.97;;;2.08;100.00
61900;BME280;47853;55.890;37.664;2023-12-29T08:12:01;97880.53;;;2.19;100.00
61900;BME280;47853;55.890;37.664;2023-12-29T08:14:26;97868.59;;;1.80;100.00
61900;BME280;47853;55.890;37.664;2023-12-29T08:16:52;97863.22;;;2.26;100.00
61900;BME280;47853;55.890;37.664;2023-12-29T08:19:17;97859.22;;;2.58;98.07
61900;BME280;47853;55.890;37.664;2023-12-29T08:21:43;97871.91;;;2.45;100.00
61900;BME280;47853;55.890;37.664;2023-12-29T08:24:08;97873.91;;;2.51;99.84
61900;BME280;47853;55.890;37.664;2023-12-29T08:26:34;97859.50;;;2.29;100.00
61900;BME280;47853;55.890;37.664;2023-12-29T08:28:59;97862.31;;;2.36;100.00
61900;BME280;47853;55.890;37.664;2023-12-29T08:31:24;97870.63;;;2.49;94.15
61900;BME280;47853;55.890;37.664;2023-12-29T08:33:50;97856.22;;;3.14;95.28
61900;BME280;47853;55.890;37.664;2023-12-29T08:36:19;97847.09;;;1.58;100.00
61900;BME280;47853;55.890;37.664;2023-12-29T08:38:45;97834.91;;;1.67;100.00
61900;BME280;47853;55.890;37.664;2023-12-29T08:41:13;97834.38;;;2.00;100.00
61900;BME280;47853;55.890;37.664;2023-12-29T08:43:39;97836.56;;;1.68;100.00
61900;BME280;47853;55.890;37.664;2023-12-29T08:46:04;97823.25;;;1.80;100.00
61900;BME280;47853;55.890;37.664;2023-12-29T08:48:29;97826.88;;;2.05;100.00
61900;BME280;47853;55.890;37.664;2023-12-29T08:50:55;97825.41;;;2.47;100.00
61900;BME280;47853;55.890;37.664;2023-12-29T08:53:20;97825.16;;;0.95;100.00
61900;BME280;47853;55.890;37.664;2023-12-29T08:55:49;97831.47;;;1.85;100.00
61900;BME280;47853;55.890;37.664;2023-12-29T08:58:14;97827.53;;;2.52;100.00
61900;BME280;47853;55.890;37.664;2023-12-29T09:00:42;97831.16;;;2.85;100.00
61900;BME280;47853;55.890;37.664;2023-12-29T09:03:07;97812.63;;;1.81;100.00
61900;BME280;47853;55.890;37.664;2023-12-29T09:05:32;97801.84;;;2.55;100.00
61900;BME280;47853;55.890;37.664;2023-12-29T09:07:58;97824.16;;;2.94;98.83
61900;BME280;47853;55.890;37.664;2023-12-29T09:10:23;97820.56;;;1.90;100.00
61900;BME280;47853;55.890;37.664;2023-12-29T09:12:49;97818.66;;;2.00;100.00
61900;BME280;47853;55.890;37.664;2023-12-29T09:15:15;97819.78;;;1.97;100.00
61900;BME280;47853;55.890;37.664;2023-12-29T09:17:40;97820.66;;;2.51;100.00
61900;BME280;47853;55.890;37.664;2023-12-29T09:20:06;97801.19;;;0.72;100.00
61900;BME280;47853;55.890;37.664;2023-12-29T09:22:34;97808.00;;;2.72;100.00
61900;BME280;47853;55.890;37.664;2023-12-29T09:24:59;97792.56;;;2.35;100.00
61900;BME280;47853;55.890;37.664;2023-12-29T09:27:25;97806.84;;;2.40;100.00
61900;BME280;47853;55.890;37.664;2023-12-29T09:29:50;97785.47;;;3.39;100.00
61900;BME280;47853;55.890;37.664;2023-12-29T09:32:16;97787.38;;;3.21;98.06
61900;BME280;47853;55.890;37.664;2023-12-29T09:34:41;97798.78;;;3.03;99.57
61900;BME280;47853;55.890;37.664;2023-12-29T09:37:06;97789.59;;;1.85;100.00
61900;BME280;47853;55.890;37.664;2023-12-29T09:39:32;97790.03;;;2.51;100.00
61900;BME280;47853;55.890;37.664;2023-12-29T09:41:58;97790.72;;;2.53;100.00
61900;BME280;47853;55.890;37.664;2023-12-29T09:44:25;97786.56;;;2.77;100.00
61900;BME280;47853;55.890;37.664;2023-12-29T09:46:53;97805.16;;;3.00;100.00
61900;BME280;47853;55.890;37.664;2023-12-29T09:49:19;97803.22;;;3.02;100.00
61900;BME280;47853;55.890;37.664;2023-12-29T09:51:45;97801.97;;;2.01;100.00
61900;BME280;47853;55.890;37.664;2023-12-29T09:54:11;97800.06;;;2.29;100.00
61900;BME280;47853;55.890;37.664;2023-12-29T09:56:37;97788.09;;;1.82;100.00
61900;BME280;47853;55.890;37.664;2023-12-29T09:59:03;97786.84;;;2.13;100.00
61900;BME280;47853;55.890;37.664;2023-12-29T10:01:30;97785.13;;;2.48;100.00
61900;BME280;47853;55.890;37.664;2023-12-29T10:03:55;97773.91;;;3.15;100.00
61900;BME280;47853;55.890;37.664;2023-12-29T10:06:24;97764.59;;;3.29;100.00
61900;BME280;47853;55.890;37.664;2023-12-29T10:08:50;97751.44;;;2.00;100.00
61900;BME280;47853;55.890;37.664;2023-12-29T10:11:18;97751.53;;;2.17;100.00
61900;BME280;47853;55.890;37.664;2023-12-29T10:13:49;97757.81;;;2.59;100.00
61900;BME280;47853;55.890;37.664;2023-12-29T10:19:36;97760.41;;;2.24;100.00
61900;BME280;47853;55.890;37.664;2023-12-29T10:24:43;97777.31;;;2.03;100.00
61900;BME280;47853;55.890;37.664;2023-12-29T10:27:08;97775.16;;;2.95;100.00
61900;BME280;47853;55.890;37.664;2023-12-29T10:29:34;97774.44;;;2.76;100.00
61900;BME280;47853;55.890;37.664;2023-12-29T10:31:59;97756.91;;;3.36;100.00
61900;BME280;47853;55.890;37.664;2023-12-29T10:34:25;97771.59;;;2.08;100.00
61900;BME280;47853;55.890;37.664;2023-12-29T10:36:50;97770.28;;;1.86;100.00
61900;BME280;47853;55.890;37.664;2023-12-29T10:39:16;97763.66;;;2.53;100.00
61900;BME280;47853;55.890;37.664;2023-12-29T10:41:42;97767.31;;;2.95;100.00
61900;BME280;47853;55.890;37.664;2023-12-29T10:44:07;97756.72;;;3.13;100.00
61900;BME280;47853;55.890;37.664;2023-12-29T10:46:33;97756.13;;;2.50;100.00
61900;BME280;47853;55.890;37.664;2023-12-29T10:49:14;97755.84;;;2.96;100.00
61900;BME280;47853;55.890;37.664;2023-12-29T10:51:39;97750.69;;;3.54;100.00
61900;BME280;47853;55.890;37.664;2023-12-29T10:54:06;97750.41;;;2.97;100.00
61900;BME280;47853;55.890;37.664;2023-12-29T10:56:32;97755.22;;;3.10;100.00
61900;BME280;47853;55.890;37.664;2023-12-29T10:59:04;97740.50;;;4.00;100.00
61900;BME280;47853;55.890;37.664;2023-12-29T11:01:34;97751.53;;;4.60;100.00
61900;BME280;47853;55.890;37.664;2023-12-29T11:04:01;97746.72;;;4.16;100.00
61900;BME280;47853;55.890;37.664;2023-12-29T11:06:27;97751.16;;;3.32;100.00
61900;BME280;47853;55.890;37.664;2023-12-29T11:08:53;97762.84;;;2.87;100.00
61900;BME280;47853;55.890;37.664;2023-12-29T11:11:18;97755.72;;;3.14;100.00
61900;BME280;47853;55.890;37.664;2023-12-29T11:13:46;97754.97;;;3.55;100.00
61900;BME280;47853;55.890;37.664;2023-12-29T11:16:12;97750.63;;;2.35;100.00
61900;BME280;47853;55.890;37.664;2023-12-29T11:18:38;97759.81;;;3.16;100.00
61900;BME280;47853;55.890;37.664;2023-12-29T11:21:08;97753.13;;;2.79;100.00
61900;BME280;47853;55.890;37.664;2023-12-29T11:23:33;97756.09;;;2.84;100.00
61900;BME280;47853;55.890;37.664;2023-12-29T11:25:59;97756.56;;;3.31;100.00
61900;BME280;47853;55.890;37.664;2023-12-29T11:28:25;97745.41;;;3.29;100.00
61900;BME280;47853;55.890;37.664;2023-12-29T11:30:51;97759.75;;;2.57;100.00
61900;BME280;47853;55.890;37.664;2023-12-29T11:33:21;97753.16;;;3.55;100.00
61900;BME280;47853;55.890;37.664;2023-12-29T11:36:08;97756.28;;;3.51;100.00
61900;BME280;47853;55.890;37.664;2023-12-29T11:38:59;97748.06;;;3.62;100.00
61900;BME280;47853;55.890;37.664;2023-12-29T11:44:05;97749.28;;;2.92;100.00
61900;BME280;47853;55.890;37.664;2023-12-29T11:46:37;97754.13;;;2.78;100.00
61900;BME280;47853;55.890;37.664;2023-12-29T11:49:04;97751.81;;;3.26;100.00
61900;BME280;47853;55.890;37.664;2023-12-29T11:51:46;97748.41;;;3.42;100.00
61900;BME280;47853;55.890;37.664;2023-12-29T11:54:26;97752.22;;;2.97;100.00
61900;BME280;47853;55.890;37.664;2023-12-29T11:56:53;97753.59;;;3.17;100.00
61900;BME280;47853;55.890;37.664;2023-12-29T11:59:25;97750.03;;;3.68;100.00
61900;BME280;47853;55.890;37.664;2023-12-29T12:01:53;97761.53;;;2.91;100.00
61900;BME280;47853;55.890;37.664;2023-12-29T12:04:38;97748.31;;;3.01;100.00
61900;BME280;47853;55.890;37.664;2023-12-29T12:07:05;97757.72;;;3.53;100.00
61900;BME280;47853;55.890;37.664;2023-12-29T12:09:31;97750.53;;;3.63;100.00
61900;BME280;47853;55.890;37.664;2023-12-29T12:11:56;97754.22;;;3.11;100.00
61900;BME280;47853;55.890;37.664;2023-12-29T12:14:50;97759.56;;;4.02;100.00
61900;BME280;47853;55.890;37.664;2023-12-29T12:17:35;97750.34;;;3.40;100.00
61900;BME280;47853;55.890;37.664;2023-12-29T12:20:08;97754.31;;;3.86;100.00
61900;BME280;47853;55.890;37.664;2023-12-29T12:22:37;97760.06;;;3.73;100.00
61900;BME280;47853;55.890;37.664;2023-12-29T12:25:06;97761.19;;;3.62;100.00
61900;BME280;47853;55.890;37.664;2023-12-29T12:27:32;97767.34;;;3.19;100.00
61900;BME280;47853;55.890;37.664;2023-12-29T12:29:58;97755.09;;;3.53;100.00
61900;BME280;47853;55.890;37.664;2023-12-29T12:32:28;97755.63;;;3.48;100.00
61900;BME280;47853;55.890;37.664;2023-12-29T12:34:57;97748.00;;;4.37;100.00
61900;BME280;47853;55.890;37.664;2023-12-29T12:37:26;97769.75;;;3.97;100.00
61900;BME280;47853;55.890;37.664;2023-12-29T12:40:04;97772.53;;;3.79;100.00
61900;BME280;47853;55.890;37.664;2023-12-29T12:42:30;97756.44;;;3.57;100.00
61900;BME280;47853;55.890;37.664;2023-12-29T12:45:10;97770.38;;;3.66;100.00
61900;BME280;47853;55.890;37.664;2023-12-29T12:47:41;97766.13;;;3.65;100.00
61900;BME280;47853;55.890;37.664;2023-12-29T12:50:08;97778.59;;;3.55;100.00
61900;BME280;47853;55.890;37.664;2023-12-29T12:52:35;97785.81;;;3.53;100.00
61900;BME280;47853;55.890;37.664;2023-12-29T12:55:01;97780.06;;;4.24;100.00
61900;BME280;47853;55.890;37.664;2023-12-29T12:57:26;97784.34;;;3.58;100.00
61900;BME280;47853;55.890;37.664;2023-12-29T12:59:53;97784.50;;;4.15;100.00
61900;BME280;47853;55.890;37.664;2023-12-29T13:02:18;97792.06;;;4.01;100.00